North Platte, NE

2:26 PM CDT on July 30, 2014 (GMT -0500)
K0KDC North Platte (KNENORTH8) Elev 2808 ft | 41.14 °N, 100.77 °W | Change Station

Current weather conditions updated 45 seconds ago

Mostly Cloudy
Mostly Cloudy
79.7 °F
Feels Like 80 °F
N
1.0
Wind Variable Wind from NE
Gusts 6.0 mph

Today is forecast to be Cooler than yesterday.

Today
High -- | Low -- °F
--% Chance of Precip.
Yesterday
High -- | Low -- °F
Precip. -- in
6:36 AM 9:01 PM
Waxing Crescent, 13% visible
Pressure 30.12 in
Visibility 10.0 miles
Clouds Scattered Clouds 6500 ft
Mostly Cloudy 8500 ft
Heat Index 80 °F
Dew Point 52 °F
Humidity 38%
Rainfall -999.00 in
Snow Depth Not available.
UV 6 out of 12
Pollen 5.40 out of 12
Air Quality Not available.
Flu Activity Not available.
METAR KLBF 301853Z AUTO VRB05KT 10SM SCT065 BKN085 26/11 A3019 RMK AO2 SLP199 T02560106

More Conditions Fewer Conditions

Pressure 30.12 in
Visibility 10.0 miles
Clouds Scattered Clouds 6500 ft
Mostly Cloudy 8500 ft
Heat Index 80 °F
Dew Point 52 °F
Humidity 38%
Rainfall -999.00 in
Snow Depth Not available.
UV 6 out of 12
Pollen 5.40 out of 12
Air Quality Not available.
Flu Activity Not available.
METAR KLBF 301853Z AUTO VRB05KT 10SM SCT065 BKN085 26/11 A3019 RMK AO2 SLP199 T02560106

More Conditions Fewer Conditions

10-Day Weather Forecast

Almanac

Astronomy

Jul. 30, 2014 Rise Set
Actual Time 6:36 AM CDT 9:01 PM CDT
Civil Twilight 6:05 AM CDT 9:32 PM CDT
Nautical Twilight 5:26 AM CDT 10:11 PM CDT
Astronomical Twilight 4:43 AM CDT 10:54 PM CDT
Moon 10:12 AM CDT 10:42 PM CDT
Length of Visible Light 15h 27m
Length of Day
14h 24m
Tomorrow will be 2m 2s shorter.
Waxing Crescent, 13% of the Moon is Illuminated
Today
Waxing Crescent
Aug 3
First Quarter
Aug 10
Full
Aug 17
Last Quarter
Aug 25
New

Today's Extremes

State Highs State Lows

Community

WunderPhotos

Upload Photos

1,739,162 photos uploaded!

WunderBlogs® & News

Nearby

Snow Depth

Station Depth Elevation
No new snow has been reported.

Earthquake Activity

City Distance Mag. Time & Date
No recent earthquake activity has been reported nearby.
Minimum magnitude displayed is 2.5.

Coastal Water Temperatures

Place Temperature
No Stations Reporting

Nearby Weather Stations

Station Location Temp. Heat Index Dew Point Humidity Wind Precip. Elev Updated Type
K0KDC North Platte, North Platte, NE 79.7 °F 80 °F 52 °F 38% NE  at  1.0 mph 0.00 in / hr 2808 ft 2:25 PM CDT Normal
Hershey Northeast, North Platte, NE 82.6 °F 82 °F 56 °F 40% SSE  at  1.0 mph 0.00 in / hr 2867 ft 2:25 PM CDT Normal

Show More Stations Show Fewer Stations